sensor_id;sensor_type;location;lat;lon;timestamp;P1;durP1;ratioP1;P2;durP2;ratioP2
69305;SDS011;56427;51.580;4.656;2023-04-24T00:01:40;27.83;;;14.13;;
69305;SDS011;56427;51.580;4.656;2023-04-24T00:04:05;31.43;;;14.63;;
69305;SDS011;56427;51.580;4.656;2023-04-24T00:06:32;26.35;;;15.00;;
69305;SDS011;56427;51.580;4.656;2023-04-24T00:09:02;24.27;;;14.82;;
69305;SDS011;56427;51.580;4.656;2023-04-24T00:11:28;27.98;;;14.07;;
69305;SDS011;56427;51.580;4.656;2023-04-24T00:13:54;29.85;;;16.10;;
69305;SDS011;56427;51.580;4.656;2023-04-24T00:16:20;24.52;;;13.60;;
69305;SDS011;56427;51.580;4.656;2023-04-24T00:18:46;23.33;;;13.40;;
69305;SDS011;56427;51.580;4.656;2023-04-24T00:21:12;22.17;;;13.00;;
69305;SDS011;56427;51.580;4.656;2023-04-24T00:23:38;25.00;;;13.00;;
69305;SDS011;56427;51.580;4.656;2023-04-24T00:26:03;29.53;;;14.47;;
69305;SDS011;56427;51.580;4.656;2023-04-24T00:28:29;27.17;;;14.83;;
69305;SDS011;56427;51.580;4.656;2023-04-24T00:30:54;29.70;;;14.17;;
69305;SDS011;56427;51.580;4.656;2023-04-24T00:33:20;28.33;;;14.53;;
69305;SDS011;56427;51.580;4.656;2023-04-24T00:35:45;27.50;;;15.77;;
69305;SDS011;56427;51.580;4.656;2023-04-24T00:38:10;29.30;;;14.38;;
69305;SDS011;56427;51.580;4.656;2023-04-24T00:40:36;25.63;;;13.03;;
69305;SDS011;56427;51.580;4.656;2023-04-24T00:43:01;23.27;;;11.87;;
69305;SDS011;56427;51.580;4.656;2023-04-24T00:45:27;17.87;;;10.03;;
69305;SDS011;56427;51.580;4.656;2023-04-24T00:47:52;15.18;;;8.73;;
69305;SDS011;56427;51.580;4.656;2023-04-24T00:50:18;19.17;;;9.77;;
69305;SDS011;56427;51.580;4.656;2023-04-24T00:52:44;15.30;;;9.10;;
69305;SDS011;56427;51.580;4.656;2023-04-24T00:55:10;16.57;;;9.83;;
69305;SDS011;56427;51.580;4.656;2023-04-24T00:57:36;15.35;;;9.35;;
69305;SDS011;56427;51.580;4.656;2023-04-24T01:00:03;18.95;;;11.15;;
69305;SDS011;56427;51.580;4.656;2023-04-24T01:02:30;19.98;;;11.98;;
69305;SDS011;56427;51.580;4.656;2023-04-24T01:04:59;18.77;;;12.10;;
69305;SDS011;56427;51.580;4.656;2023-04-24T01:07:26;18.65;;;12.20;;
69305;SDS011;56427;51.580;4.656;2023-04-24T01:09:52;24.20;;;13.35;;
69305;SDS011;56427;51.580;4.656;2023-04-24T01:12:18;29.40;;;16.80;;
69305;SDS011;56427;51.580;4.656;2023-04-24T01:14:44;29.03;;;17.47;;
69305;SDS011;56427;51.580;4.656;2023-04-24T01:17:10;34.83;;;20.15;;
69305;SDS011;56427;51.580;4.656;2023-04-24T01:19:35;36.03;;;18.88;;
69305;SDS011;56427;51.580;4.656;2023-04-24T01:22:02;33.95;;;18.55;;
69305;SDS011;56427;51.580;4.656;2023-04-24T01:24:28;34.53;;;18.90;;
69305;SDS011;56427;51.580;4.656;2023-04-24T01:26:54;28.48;;;16.85;;
69305;SDS011;56427;51.580;4.656;2023-04-24T01:29:20;31.50;;;17.88;;
69305;SDS011;56427;51.580;4.656;2023-04-24T01:31:46;30.73;;;18.02;;
69305;SDS011;56427;51.580;4.656;2023-04-24T01:34:11;32.78;;;17.25;;
69305;SDS011;56427;51.580;4.656;2023-04-24T01:36:37;30.67;;;17.73;;
69305;SDS011;56427;51.580;4.656;2023-04-24T01:39:04;29.52;;;16.15;;
69305;SDS011;56427;51.580;4.656;2023-04-24T01:41:30;28.83;;;16.27;;
69305;SDS011;56427;51.580;4.656;2023-04-24T01:43:56;27.97;;;14.70;;
69305;SDS011;56427;51.580;4.656;2023-04-24T01:46:22;24.30;;;13.45;;
69305;SDS011;56427;51.580;4.656;2023-04-24T01:48:48;23.35;;;13.38;;
69305;SDS011;56427;51.580;4.656;2023-04-24T01:51:14;23.33;;;13.17;;
69305;SDS011;56427;51.580;4.656;2023-04-24T01:53:39;22.88;;;12.55;;
69305;SDS011;56427;51.580;4.656;2023-04-24T01:56:05;21.98;;;12.68;;
69305;SDS011;56427;51.580;4.656;2023-04-24T01:58:30;20.77;;;11.87;;
69305;SDS011;56427;51.580;4.656;2023-04-24T02:00:56;22.15;;;12.48;;
69305;SDS011;56427;51.580;4.656;2023-04-24T02:03:24;21.60;;;12.35;;
69305;SDS011;56427;51.580;4.656;2023-04-24T02:05:50;23.43;;;12.60;;
69305;SDS011;56427;51.580;4.656;2023-04-24T02:08:15;27.20;;;12.95;;
69305;SDS011;56427;51.580;4.656;2023-04-24T02:10:41;19.33;;;11.38;;
69305;SDS011;56427;51.580;4.656;2023-04-24T02:13:06;23.23;;;11.50;;
69305;SDS011;56427;51.580;4.656;2023-04-24T02:15:31;23.17;;;10.07;;
69305;SDS011;56427;51.580;4.656;2023-04-24T02:17:57;20.80;;;10.60;;
69305;SDS011;56427;51.580;4.656;2023-04-24T02:20:22;23.87;;;11.40;;
69305;SDS011;56427;51.580;4.656;2023-04-24T02:22:48;17.93;;;9.87;;
69305;SDS011;56427;51.580;4.656;2023-04-24T02:25:13;16.50;;;8.93;;
69305;SDS011;56427;51.580;4.656;2023-04-24T02:27:38;20.83;;;10.03;;
69305;SDS011;56427;51.580;4.656;2023-04-24T02:30:04;18.30;;;10.10;;
69305;SDS011;56427;51.580;4.656;2023-04-24T02:32:30;19.77;;;10.02;;
69305;SDS011;56427;51.580;4.656;2023-04-24T02:34:55;15.83;;;10.40;;
69305;SDS011;56427;51.580;4.656;2023-04-24T02:37:21;22.03;;;10.33;;
69305;SDS011;56427;51.580;4.656;2023-04-24T02:39:46;19.75;;;10.27;;
69305;SDS011;56427;51.580;4.656;2023-04-24T02:42:11;23.98;;;10.52;;
69305;SDS011;56427;51.580;4.656;2023-04-24T02:44:37;24.73;;;10.80;;
69305;SDS011;56427;51.580;4.656;2023-04-24T02:47:02;19.77;;;9.70;;
69305;SDS011;56427;51.580;4.656;2023-04-24T02:49:28;21.50;;;9.98;;
69305;SDS011;56427;51.580;4.656;2023-04-24T02:51:53;18.93;;;9.00;;
69305;SDS011;56427;51.580;4.656;2023-04-24T02:54:19;16.50;;;9.30;;
69305;SDS011;56427;51.580;4.656;2023-04-24T02:56:44;14.77;;;8.27;;
69305;SDS011;56427;51.580;4.656;2023-04-24T02:59:10;16.83;;;8.53;;
69305;SDS011;56427;51.580;4.656;2023-04-24T03:01:35;16.75;;;8.90;;
69305;SDS011;56427;51.580;4.656;2023-04-24T03:04:01;13.33;;;7.40;;
69305;SDS011;56427;51.580;4.656;2023-04-24T03:06:26;16.02;;;7.10;;
69305;SDS011;56427;51.580;4.656;2023-04-24T03:08:52;13.48;;;7.10;;
69305;SDS011;56427;51.580;4.656;2023-04-24T03:11:18;13.30;;;7.60;;
69305;SDS011;56427;51.580;4.656;2023-04-24T03:13:43;13.80;;;7.47;;
69305;SDS011;56427;51.580;4.656;2023-04-24T03:16:08;14.85;;;8.30;;
69305;SDS011;56427;51.580;4.656;2023-04-24T03:18:34;11.80;;;7.63;;
69305;SDS011;56427;51.580;4.656;2023-04-24T03:21:00;13.60;;;7.93;;
69305;SDS011;56427;51.580;4.656;2023-04-24T03:23:25;14.73;;;9.20;;
69305;SDS011;56427;51.580;4.656;2023-04-24T03:25:51;14.57;;;8.73;;
69305;SDS011;56427;51.580;4.656;2023-04-24T03:28:16;14.93;;;8.47;;
69305;SDS011;56427;51.580;4.656;2023-04-24T03:30:41;16.17;;;8.87;;
69305;SDS011;56427;51.580;4.656;2023-04-24T03:33:07;16.20;;;8.93;;
69305;SDS011;56427;51.580;4.656;2023-04-24T03:35:32;14.60;;;8.60;;
69305;SDS011;56427;51.580;4.656;2023-04-24T03:37:57;12.63;;;7.67;;
69305;SDS011;56427;51.580;4.656;2023-04-24T03:40:23;13.57;;;7.90;;
69305;SDS011;56427;51.580;4.656;2023-04-24T03:42:48;15.57;;;5.97;;
69305;SDS011;56427;51.580;4.656;2023-04-24T03:45:14;7.43;;;3.53;;
69305;SDS011;56427;51.580;4.656;2023-04-24T03:47:39;6.20;;;2.80;;
69305;SDS011;56427;51.580;4.656;2023-04-24T03:50:05;5.33;;;3.07;;
69305;SDS011;56427;51.580;4.656;2023-04-24T03:52:30;9.10;;;4.43;;
69305;SDS011;56427;51.580;4.656;2023-04-24T03:54:56;8.97;;;4.07;;
69305;SDS011;56427;51.580;4.656;2023-04-24T03:57:21;9.65;;;3.35;;
69305;SDS011;56427;51.580;4.656;2023-04-24T03:59:46;7.00;;;3.07;;
69305;SDS011;56427;51.580;4.656;2023-04-24T04:02:12;7.80;;;2.90;;
69305;SDS011;56427;51.580;4.656;2023-04-24T04:04:37;5.33;;;2.20;;
69305;SDS011;56427;51.580;4.656;2023-04-24T04:07:02;8.70;;;2.50;;
69305;SDS011;56427;51.580;4.656;2023-04-24T04:09:28;4.27;;;1.90;;
69305;SDS011;56427;51.580;4.656;2023-04-24T04:11:54;5.53;;;2.17;;
69305;SDS011;56427;51.580;4.656;2023-04-24T04:14:20;6.07;;;2.30;;
69305;SDS011;56427;51.580;4.656;2023-04-24T04:16:46;5.05;;;2.38;;
69305;SDS011;56427;51.580;4.656;2023-04-24T04:19:11;5.95;;;2.85;;
69305;SDS011;56427;51.580;4.656;2023-04-24T04:21:36;10.80;;;3.60;;
69305;SDS011;56427;51.580;4.656;2023-04-24T04:24:02;8.90;;;3.97;;
69305;SDS011;56427;51.580;4.656;2023-04-24T04:26:27;9.17;;;4.10;;
69305;SDS011;56427;51.580;4.656;2023-04-24T04:28:53;10.90;;;4.60;;
69305;SDS011;56427;51.580;4.656;2023-04-24T04:31:21;9.40;;;4.72;;
69305;SDS011;56427;51.580;4.656;2023-04-24T04:33:46;11.57;;;5.57;;
69305;SDS011;56427;51.580;4.656;2023-04-24T04:36:11;12.35;;;5.45;;
69305;SDS011;56427;51.580;4.656;2023-04-24T04:38:37;11.10;;;4.90;;
69305;SDS011;56427;51.580;4.656;2023-04-24T04:41:02;11.97;;;5.17;;
69305;SDS011;56427;51.580;4.656;2023-04-24T04:43:28;11.17;;;5.40;;
69305;SDS011;56427;51.580;4.656;2023-04-24T04:45:53;9.82;;;5.78;;
69305;SDS011;56427;51.580;4.656;2023-04-24T04:48:20;15.30;;;6.20;;
69305;SDS011;56427;51.580;4.656;2023-04-24T04:50:46;16.15;;;6.55;;
69305;SDS011;56427;51.580;4.656;2023-04-24T04:53:11;13.67;;;7.00;;
69305;SDS011;56427;51.580;4.656;2023-04-24T04:55:37;15.93;;;7.37;;
69305;SDS011;56427;51.580;4.656;2023-04-24T04:58:02;16.53;;;7.57;;
69305;SDS011;56427;51.580;4.656;2023-04-24T05:00:28;18.95;;;7.05;;
69305;SDS011;56427;51.580;4.656;2023-04-24T05:02:59;20.27;;;8.23;;
69305;SDS011;56427;51.580;4.656;2023-04-24T05:05:25;17.95;;;7.70;;
69305;SDS011;56427;51.580;4.656;2023-04-24T05:07:50;22.70;;;8.45;;
69305;SDS011;56427;51.580;4.656;2023-04-24T05:10:16;18.88;;;8.18;;
69305;SDS011;56427;51.580;4.656;2023-04-24T05:12:41;20.77;;;8.47;;
69305;SDS011;56427;51.580;4.656;2023-04-24T05:15:06;18.13;;;9.00;;
69305;SDS011;56427;51.580;4.656;2023-04-24T05:17:32;23.90;;;10.30;;
69305;SDS011;56427;51.580;4.656;2023-04-24T05:19:57;20.85;;;11.25;;
69305;SDS011;56427;51.580;4.656;2023-04-24T05:22:23;19.87;;;10.20;;
69305;SDS011;56427;51.580;4.656;2023-04-24T05:24:48;26.90;;;11.23;;
69305;SDS011;56427;51.580;4.656;2023-04-24T05:27:14;28.70;;;12.93;;
69305;SDS011;56427;51.580;4.656;2023-04-24T05:29:40;27.23;;;12.57;;
69305;SDS011;56427;51.580;4.656;2023-04-24T05:32:05;27.37;;;13.10;;
69305;SDS011;56427;51.580;4.656;2023-04-24T05:34:30;33.35;;;14.48;;
69305;SDS011;56427;51.580;4.656;2023-04-24T05:36:56;34.00;;;15.23;;
69305;SDS011;56427;51.580;4.656;2023-04-24T05:39:21;32.40;;;13.33;;
69305;SDS011;56427;51.580;4.656;2023-04-24T05:41:47;31.00;;;13.57;;
69305;SDS011;56427;51.580;4.656;2023-04-24T05:44:12;26.93;;;13.77;;
69305;SDS011;56427;51.580;4.656;2023-04-24T05:46:37;28.48;;;12.68;;
69305;SDS011;56427;51.580;4.656;2023-04-24T05:49:03;27.42;;;13.48;;
69305;SDS011;56427;51.580;4.656;2023-04-24T05:51:28;30.43;;;13.47;;
69305;SDS011;56427;51.580;4.656;2023-04-24T05:53:54;21.67;;;12.00;;
69305;SDS011;56427;51.580;4.656;2023-04-24T05:56:19;29.30;;;12.77;;
69305;SDS011;56427;51.580;4.656;2023-04-24T05:58:45;25.15;;;13.15;;
69305;SDS011;56427;51.580;4.656;2023-04-24T06:01:12;30.48;;;13.15;;
69305;SDS011;56427;51.580;4.656;2023-04-24T06:03:39;24.33;;;12.23;;
69305;SDS011;56427;51.580;4.656;2023-04-24T06:06:05;29.77;;;13.80;;
69305;SDS011;56427;51.580;4.656;2023-04-24T06:08:31;24.00;;;13.57;;
69305;SDS011;56427;51.580;4.656;2023-04-24T06:10:57;38.67;;;14.45;;
69305;SDS011;56427;51.580;4.656;2023-04-24T06:13:23;27.63;;;12.90;;
69305;SDS011;56427;51.580;4.656;2023-04-24T06:15:48;26.33;;;12.97;;
69305;SDS011;56427;51.580;4.656;2023-04-24T06:18:13;32.27;;;12.60;;
69305;SDS011;56427;51.580;4.656;2023-04-24T06:20:39;26.23;;;12.60;;
69305;SDS011;56427;51.580;4.656;2023-04-24T06:23:04;24.97;;;12.43;;
69305;SDS011;56427;51.580;4.656;2023-04-24T06:25:30;32.43;;;11.33;;
69305;SDS011;56427;51.580;4.656;2023-04-24T06:27:55;24.83;;;11.10;;
69305;SDS011;56427;51.580;4.656;2023-04-24T06:30:21;24.60;;;10.73;;
69305;SDS011;56427;51.580;4.656;2023-04-24T06:32:46;23.77;;;8.97;;
69305;SDS011;56427;51.580;4.656;2023-04-24T06:35:12;24.73;;;9.25;;
69305;SDS011;56427;51.580;4.656;2023-04-24T06:37:40;23.80;;;9.13;;
69305;SDS011;56427;51.580;4.656;2023-04-24T06:40:07;29.13;;;9.75;;
69305;SDS011;56427;51.580;4.656;2023-04-24T06:42:33;23.77;;;8.87;;
69305;SDS011;56427;51.580;4.656;2023-04-24T06:44:59;24.85;;;9.00;;
69305;SDS011;56427;51.580;4.656;2023-04-24T06:47:25;28.30;;;8.80;;
69305;SDS011;56427;51.580;4.656;2023-04-24T06:49:51;23.13;;;7.90;;
69305;SDS011;56427;51.580;4.656;2023-04-24T06:52:17;28.05;;;8.68;;
69305;SDS011;56427;51.580;4.656;2023-04-24T06:54:43;26.37;;;8.87;;
69305;SDS011;56427;51.580;4.656;2023-04-24T06:57:08;30.97;;;8.47;;
69305;SDS011;56427;51.580;4.656;2023-04-24T06:59:33;25.08;;;8.43;;
69305;SDS011;56427;51.580;4.656;2023-04-24T07:01:59;29.88;;;9.05;;
69305;SDS011;56427;51.580;4.656;2023-04-24T07:04:27;25.95;;;7.95;;
69305;SDS011;56427;51.580;4.656;2023-04-24T07:06:53;22.03;;;6.50;;
69305;SDS011;56427;51.580;4.656;2023-04-24T07:09:23;22.60;;;6.47;;
69305;SDS011;56427;51.580;4.656;2023-04-24T07:11:50;20.85;;;6.22;;
69305;SDS011;56427;51.580;4.656;2023-04-24T07:14:16;24.08;;;7.30;;
69305;SDS011;56427;51.580;4.656;2023-04-24T07:16:42;21.05;;;6.65;;
69305;SDS011;56427;51.580;4.656;2023-04-24T07:19:08;27.15;;;7.43;;
69305;SDS011;56427;51.580;4.656;2023-04-24T07:21:33;24.10;;;6.90;;
69305;SDS011;56427;51.580;4.656;2023-04-24T07:23:59;29.17;;;7.10;;
69305;SDS011;56427;51.580;4.656;2023-04-24T07:26:25;16.85;;;6.00;;
69305;SDS011;56427;51.580;4.656;2023-04-24T07:28:51;15.27;;;4.70;;
69305;SDS011;56427;51.580;4.656;2023-04-24T07:31:16;20.70;;;5.07;;
69305;SDS011;56427;51.580;4.656;2023-04-24T07:33:42;18.27;;;4.47;;
69305;SDS011;56427;51.580;4.656;2023-04-24T07:36:07;13.87;;;4.40;;
69305;SDS011;56427;51.580;4.656;2023-04-24T07:38:32;18.33;;;4.23;;
69305;SDS011;56427;51.580;4.656;2023-04-24T07:40:58;16.40;;;3.70;;
69305;SDS011;56427;51.580;4.656;2023-04-24T07:43:23;18.03;;;4.47;;
69305;SDS011;56427;51.580;4.656;2023-04-24T07:45:51;21.33;;;4.47;;
69305;SDS011;56427;51.580;4.656;2023-04-24T07:48:17;15.02;;;4.25;;
69305;SDS011;56427;51.580;4.656;2023-04-24T07:50:43;26.07;;;4.43;;
69305;SDS011;56427;51.580;4.656;2023-04-24T07:53:09;19.88;;;4.00;;
69305;SDS011;56427;51.580;4.656;2023-04-24T07:55:35;21.20;;;4.25;;
69305;SDS011;56427;51.580;4.656;2023-04-24T07:58:00;23.73;;;4.20;;
69305;SDS011;56427;51.580;4.656;2023-04-24T08:00:26;21.37;;;4.90;;
69305;SDS011;56427;51.580;4.656;2023-04-24T08:02:51;19.87;;;3.57;;
69305;SDS011;56427;51.580;4.656;2023-04-24T08:05:17;17.67;;;4.33;;
69305;SDS011;56427;51.580;4.656;2023-04-24T08:07:42;18.83;;;3.78;;
69305;SDS011;56427;51.580;4.656;2023-04-24T08:10:09;18.47;;;4.43;;
69305;SDS011;56427;51.580;4.656;2023-04-24T08:12:35;17.70;;;3.50;;
69305;SDS011;56427;51.580;4.656;2023-04-24T08:15:01;14.48;;;3.53;;
69305;SDS011;56427;51.580;4.656;2023-04-24T08:17:27;16.58;;;4.50;;
69305;SDS011;56427;51.580;4.656;2023-04-24T08:19:52;21.50;;;3.87;;
69305;SDS011;56427;51.580;4.656;2023-04-24T08:22:24;19.38;;;3.97;;
69305;SDS011;56427;51.580;4.656;2023-04-24T08:24:49;23.50;;;5.03;;
69305;SDS011;56427;51.580;4.656;2023-04-24T08:27:14;20.57;;;4.33;;
69305;SDS011;56427;51.580;4.656;2023-04-24T08:29:40;15.20;;;2.50;;
69305;SDS011;56427;51.580;4.656;2023-04-24T08:32:05;17.13;;;3.50;;
69305;SDS011;56427;51.580;4.656;2023-04-24T08:34:31;21.20;;;4.10;;
69305;SDS011;56427;51.580;4.656;2023-04-24T08:36:56;16.83;;;3.20;;
69305;SDS011;56427;51.580;4.656;2023-04-24T08:39:22;17.83;;;3.95;;
69305;SDS011;56427;51.580;4.656;2023-04-24T08:41:47;16.17;;;3.10;;
69305;SDS011;56427;51.580;4.656;2023-04-24T08:44:13;13.82;;;2.80;;
69305;SDS011;56427;51.580;4.656;2023-04-24T08:46:41;11.53;;;2.83;;
69305;SDS011;56427;51.580;4.656;2023-04-24T08:49:10;15.68;;;2.53;;
69305;SDS011;56427;51.580;4.656;2023-04-24T08:51:37;13.48;;;2.83;;
69305;SDS011;56427;51.580;4.656;2023-04-24T08:54:03;13.63;;;2.80;;
69305;SDS011;56427;51.580;4.656;2023-04-24T08:56:29;15.88;;;2.40;;
69305;SDS011;56427;51.580;4.656;2023-04-24T08:58:58;26.67;;;2.80;;
69305;SDS011;56427;51.580;4.656;2023-04-24T09:01:24;10.05;;;2.13;;
69305;SDS011;56427;51.580;4.656;2023-04-24T09:03:50;13.93;;;2.90;;
69305;SDS011;56427;51.580;4.656;2023-04-24T09:06:18;10.50;;;2.47;;
69305;SDS011;56427;51.580;4.656;2023-04-24T09:08:46;8.55;;;2.05;;
69305;SDS011;56427;51.580;4.656;2023-04-24T09:11:14;10.57;;;2.40;;
69305;SDS011;56427;51.580;4.656;2023-04-24T09:13:39;6.67;;;1.63;;
69305;SDS011;56427;51.580;4.656;2023-04-24T09:16:06;12.73;;;2.30;;
69305;SDS011;56427;51.580;4.656;2023-04-24T09:18:31;13.47;;;2.10;;
69305;SDS011;56427;51.580;4.656;2023-04-24T09:20:58;9.82;;;1.67;;
69305;SDS011;56427;51.580;4.656;2023-04-24T09:23:33;7.32;;;1.80;;
69305;SDS011;56427;51.580;4.656;2023-04-24T09:25:59;5.80;;;2.00;;
69305;SDS011;56427;51.580;4.656;2023-04-24T09:28:30;8.52;;;1.70;;
69305;SDS011;56427;51.580;4.656;2023-04-24T09:31:03;8.95;;;1.80;;
69305;SDS011;56427;51.580;4.656;2023-04-24T09:33:32;11.52;;;1.70;;
69305;SDS011;56427;51.580;4.656;2023-04-24T09:35:58;4.60;;;1.23;;
69305;SDS011;56427;51.580;4.656;2023-04-24T09:38:34;5.75;;;1.40;;
69305;SDS011;56427;51.580;4.656;2023-04-24T09:41:01;5.63;;;1.40;;
69305;SDS011;56427;51.580;4.656;2023-04-24T09:43:29;9.65;;;1.40;;
69305;SDS011;56427;51.580;4.656;2023-04-24T09:45:56;9.55;;;1.67;;
69305;SDS011;56427;51.580;4.656;2023-04-24T09:48:30;9.75;;;2.03;;
69305;SDS011;56427;51.580;4.656;2023-04-24T09:51:00;8.63;;;1.52;;
69305;SDS011;56427;51.580;4.656;2023-04-24T09:53:26;7.43;;;1.33;;
69305;SDS011;56427;51.580;4.656;2023-04-24T09:55:52;5.93;;;1.58;;
69305;SDS011;56427;51.580;4.656;2023-04-24T09:58:18;7.13;;;1.70;;
69305;SDS011;56427;51.580;4.656;2023-04-24T10:00:51;7.60;;;1.30;;
69305;SDS011;56427;51.580;4.656;2023-04-24T10:03:18;7.32;;;1.80;;
69305;SDS011;56427;51.580;4.656;2023-04-24T10:05:45;11.57;;;1.40;;
69305;SDS011;56427;51.580;4.656;2023-04-24T10:08:11;3.63;;;0.83;;
69305;SDS011;56427;51.580;4.656;2023-04-24T10:10:46;7.75;;;0.82;;
69305;SDS011;56427;51.580;4.656;2023-04-24T10:13:12;3.97;;;0.80;;
69305;SDS011;56427;51.580;4.656;2023-04-24T10:15:40;5.32;;;1.27;;
69305;SDS011;56427;51.580;4.656;2023-04-24T10:18:07;6.07;;;1.33;;
69305;SDS011;56427;51.580;4.656;2023-04-24T10:20:34;4.53;;;1.23;;
69305;SDS011;56427;51.580;4.656;2023-04-24T10:23:01;6.07;;;1.17;;
69305;SDS011;56427;51.580;4.656;2023-04-24T10:25:28;6.28;;;1.20;;
69305;SDS011;56427;51.580;4.656;2023-04-24T10:27:56;7.65;;;1.20;;
69305;SDS011;56427;51.580;4.656;2023-04-24T10:30:24;4.55;;;0.90;;
69305;SDS011;56427;51.580;4.656;2023-04-24T10:32:51;7.13;;;1.30;;
69305;SDS011;56427;51.580;4.656;2023-04-24T10:35:17;7.57;;;1.10;;
69305;SDS011;56427;51.580;4.656;2023-04-24T10:38:06;6.28;;;1.58;;
69305;SDS011;56427;51.580;4.656;2023-04-24T10:40:41;7.32;;;1.27;;
69305;SDS011;56427;51.580;4.656;2023-04-24T10:43:08;5.57;;;1.10;;
69305;SDS011;56427;51.580;4.656;2023-04-24T10:45:37;5.90;;;1.10;;
69305;SDS011;56427;51.580;4.656;2023-04-24T10:48:04;9.57;;;1.87;;
69305;SDS011;56427;51.580;4.656;2023-04-24T10:50:42;16.60;;;2.15;;
69305;SDS011;56427;51.580;4.656;2023-04-24T10:53:16;20.13;;;2.17;;
69305;SDS011;56427;51.580;4.656;2023-04-24T10:58:39;6.68;;;1.23;;
69305;SDS011;56427;51.580;4.656;2023-04-24T11:01:06;78.70;;;8.03;;
69305;SDS011;56427;51.580;4.656;2023-04-24T11:03:32;22.98;;;2.72;;
69305;SDS011;56427;51.580;4.656;2023-04-24T11:08:25;49.20;;;5.37;;
69305;SDS011;56427;51.580;4.656;2023-04-24T11:10:55;12.15;;;1.80;;
69305;SDS011;56427;51.580;4.656;2023-04-24T11:21:44;27.85;;;3.20;;
69305;SDS011;56427;51.580;4.656;2023-04-24T11:26:58;24.98;;;3.13;;
69305;SDS011;56427;51.580;4.656;2023-04-24T11:35:08;8.90;;;1.50;;
69305;SDS011;56427;51.580;4.656;2023-04-24T11:37:45;9.70;;;1.65;;
69305;SDS011;56427;51.580;4.656;2023-04-24T11:40:12;9.85;;;1.40;;
69305;SDS011;56427;51.580;4.656;2023-04-24T11:42:41;5.83;;;1.20;;
69305;SDS011;56427;51.580;4.656;2023-04-24T11:45:09;8.93;;;1.50;;
69305;SDS011;56427;51.580;4.656;2023-04-24T11:47:36;6.00;;;1.65;;
69305;SDS011;56427;51.580;4.656;2023-04-24T11:50:03;5.80;;;1.55;;
69305;SDS011;56427;51.580;4.656;2023-04-24T11:52:30;7.20;;;1.30;;
69305;SDS011;56427;51.580;4.656;2023-04-24T11:54:56;4.80;;;1.38;;
69305;SDS011;56427;51.580;4.656;2023-04-24T11:57:23;6.30;;;1.40;;
69305;SDS011;56427;51.580;4.656;2023-04-24T11:59:51;5.13;;;1.35;;
69305;SDS011;56427;51.580;4.656;2023-04-24T12:02:21;5.75;;;1.55;;
69305;SDS011;56427;51.580;4.656;2023-04-24T12:04:47;4.57;;;1.45;;
69305;SDS011;56427;51.580;4.656;2023-04-24T12:07:13;10.87;;;1.80;;
69305;SDS011;56427;51.580;4.656;2023-04-24T12:09:46;6.57;;;1.70;;
69305;SDS011;56427;51.580;4.656;2023-04-24T12:12:13;7.88;;;2.15;;
69305;SDS011;56427;51.580;4.656;2023-04-24T12:14:44;3.97;;;1.42;;
69305;SDS011;56427;51.580;4.656;2023-04-24T12:17:13;6.40;;;1.48;;
69305;SDS011;56427;51.580;4.656;2023-04-24T12:19:44;7.25;;;1.95;;
69305;SDS011;56427;51.580;4.656;2023-04-24T12:22:13;6.68;;;1.95;;
69305;SDS011;56427;51.580;4.656;2023-04-24T12:27:31;6.93;;;1.88;;
69305;SDS011;56427;51.580;4.656;2023-04-24T12:29:58;5.80;;;1.70;;
69305;SDS011;56427;51.580;4.656;2023-04-24T12:32:24;7.18;;;1.80;;
69305;SDS011;56427;51.580;4.656;2023-04-24T12:34:50;5.90;;;1.50;;
69305;SDS011;56427;51.580;4.656;2023-04-24T12:37:17;5.60;;;1.10;;
69305;SDS011;56427;51.580;4.656;2023-04-24T12:39:58;4.78;;;1.30;;
69305;SDS011;56427;51.580;4.656;2023-04-24T12:42:34;8.38;;;1.60;;
69305;SDS011;56427;51.580;4.656;2023-04-24T12:45:02;12.05;;;1.88;;
69305;SDS011;56427;51.580;4.656;2023-04-24T12:47:30;9.85;;;2.35;;
69305;SDS011;56427;51.580;4.656;2023-04-24T12:49:56;11.32;;;2.33;;
69305;SDS011;56427;51.580;4.656;2023-04-24T12:52:22;8.57;;;2.17;;
69305;SDS011;56427;51.580;4.656;2023-04-24T12:54:49;9.63;;;2.03;;
69305;SDS011;56427;51.580;4.656;2023-04-24T12:57:15;9.40;;;1.80;;
69305;SDS011;56427;51.580;4.656;2023-04-24T12:59:41;6.07;;;2.05;;
69305;SDS011;56427;51.580;4.656;2023-04-24T13:02:07;15.48;;;2.20;;
69305;SDS011;56427;51.580;4.656;2023-04-24T13:04:34;12.73;;;2.28;;
69305;SDS011;56427;51.580;4.656;2023-04-24T13:06:59;217.07;;;13.10;;
69305;SDS011;56427;51.580;4.656;2023-04-24T13:09:24;10.03;;;1.90;;
69305;SDS011;56427;51.580;4.656;2023-04-24T13:11:50;7.87;;;1.70;;
69305;SDS011;56427;51.580;4.656;2023-04-24T13:14:15;9.37;;;1.90;;
69305;SDS011;56427;51.580;4.656;2023-04-24T13:16:41;8.87;;;1.90;;
69305;SDS011;56427;51.580;4.656;2023-04-24T13:19:06;8.27;;;2.03;;
69305;SDS011;56427;51.580;4.656;2023-04-24T13:21:31;8.48;;;1.80;;
69305;SDS011;56427;51.580;4.656;2023-04-24T13:23:57;8.13;;;1.50;;
69305;SDS011;56427;51.580;4.656;2023-04-24T13:26:22;4.87;;;1.60;;
69305;SDS011;56427;51.580;4.656;2023-04-24T13:28:48;5.90;;;1.87;;
69305;SDS011;56427;51.580;4.656;2023-04-24T13:31:13;6.70;;;1.73;;
69305;SDS011;56427;51.580;4.656;2023-04-24T13:33:38;12.68;;;1.95;;
69305;SDS011;56427;51.580;4.656;2023-04-24T13:36:05;7.53;;;1.60;;
69305;SDS011;56427;51.580;4.656;2023-04-24T13:38:30;5.93;;;1.65;;
69305;SDS011;56427;51.580;4.656;2023-04-24T13:40:56;5.33;;;1.57;;
69305;SDS011;56427;51.580;4.656;2023-04-24T13:43:21;8.37;;;1.40;;
69305;SDS011;56427;51.580;4.656;2023-04-24T13:45:46;8.17;;;1.40;;
69305;SDS011;56427;51.580;4.656;2023-04-24T13:48:12;9.97;;;2.00;;
69305;SDS011;56427;51.580;4.656;2023-04-24T13:50:40;8.77;;;1.45;;
69305;SDS011;56427;51.580;4.656;2023-04-24T13:53:06;5.35;;;1.70;;
69305;SDS011;56427;51.580;4.656;2023-04-24T13:55:31;8.20;;;2.00;;
69305;SDS011;56427;51.580;4.656;2023-04-24T13:57:57;8.05;;;1.77;;
69305;SDS011;56427;51.580;4.656;2023-04-24T14:00:22;7.17;;;1.80;;
69305;SDS011;56427;51.580;4.656;2023-04-24T14:02:48;7.53;;;2.20;;
69305;SDS011;56427;51.580;4.656;2023-04-24T14:05:14;6.77;;;1.70;;
69305;SDS011;56427;51.580;4.656;2023-04-24T14:07:40;7.90;;;2.10;;
69305;SDS011;56427;51.580;4.656;2023-04-24T14:10:06;6.13;;;1.50;;
69305;SDS011;56427;51.580;4.656;2023-04-24T14:12:32;4.90;;;1.40;;
69305;SDS011;56427;51.580;4.656;2023-04-24T14:14:58;5.85;;;1.50;;
69305;SDS011;56427;51.580;4.656;2023-04-24T14:17:24;5.50;;;1.70;;
69305;SDS011;56427;51.580;4.656;2023-04-24T14:19:49;7.27;;;1.87;;
69305;SDS011;56427;51.580;4.656;2023-04-24T14:22:16;6.85;;;1.65;;
69305;SDS011;56427;51.580;4.656;2023-04-24T14:24:42;9.23;;;1.90;;
69305;SDS011;56427;51.580;4.656;2023-04-24T14:27:07;9.57;;;2.00;;
69305;SDS011;56427;51.580;4.656;2023-04-24T14:29:33;5.60;;;2.20;;
69305;SDS011;56427;51.580;4.656;2023-04-24T14:31:58;7.63;;;2.10;;
69305;SDS011;56427;51.580;4.656;2023-04-24T14:34:23;9.63;;;1.87;;
69305;SDS011;56427;51.580;4.656;2023-04-24T14:36:49;5.87;;;1.97;;
69305;SDS011;56427;51.580;4.656;2023-04-24T14:39:14;5.93;;;1.98;;
69305;SDS011;56427;51.580;4.656;2023-04-24T14:41:39;7.88;;;2.30;;
69305;SDS011;56427;51.580;4.656;2023-04-24T14:44:05;11.73;;;1.93;;
69305;SDS011;56427;51.580;4.656;2023-04-24T14:46:31;7.27;;;2.10;;
69305;SDS011;56427;51.580;4.656;2023-04-24T14:48:56;9.35;;;2.22;;
69305;SDS011;56427;51.580;4.656;2023-04-24T14:51:22;7.90;;;1.92;;
69305;SDS011;56427;51.580;4.656;2023-04-24T14:53:48;10.73;;;2.47;;
69305;SDS011;56427;51.580;4.656;2023-04-24T14:56:13;8.47;;;2.60;;